Time;durP1;ratioP1;P1;durP2;ratioP2;P2;SDS_P1;SDS_P2;PMS_P1;PMS_P2;Temp;Humidity;BMP_temperature;BMP_pressure;BME280_temperature;BME280_humidity;BME280_pressure;Samples;Min_cycle;Max_cycle;Signal;HPM_P1;HPM_P2
2021/06/12 00:01:43;;;;;;;8.48;5.63;;;19.90;71.50;19.20;101855.00;;;;5043358;28;20038;-73
2021/06/12 00:04:09;;;;;;;6.30;4.70;;;19.80;71.60;19.20;101862.00;;;;5054051;28;20033;-73
2021/06/12 00:06:35;;;;;;;8.05;5.38;;;19.80;71.50;19.20;101850.00;;;;5038950;28;20585;-73
2021/06/12 00:09:01;;;;;;;7.90;5.50;;;19.80;71.60;19.20;101856.00;;;;5020058;28;20119;-73
2021/06/12 00:11:27;;;;;;;8.88;5.25;;;19.30;71.40;19.20;101861.00;;;;5022644;28;20118;-73
2021/06/12 00:13:53;;;;;;;10.48;4.97;;;19.70;71.50;19.20;101863.00;;;;5005448;28;20052;-75
2021/06/12 00:16:19;;;;;;;7.40;5.72;;;19.70;70.60;19.20;101854.00;;;;5024297;28;20040;-73
2021/06/12 00:18:46;;;;;;;6.43;5.30;;;19.70;71.40;19.10;101849.00;;;;5035195;28;20037;-74
2021/06/12 00:21:12;;;;;;;;;;;19.70;70.70;19.00;101849.00;;;;5040458;28;20585;-74
2021/06/12 00:23:38;;;;;;;13.80;5.15;;;19.60;70.90;19.00;101849.00;;;;5016864;28;20583;-74
2021/06/12 00:26:04;;;;;;;9.98;5.38;;;19.60;71.40;19.00;101845.00;;;;5037373;28;20064;-73
2021/06/12 00:28:32;;;;;;;11.32;5.47;;;19.60;71.70;18.90;101848.00;;;;5021503;28;20128;-74
2021/06/12 00:30:58;;;;;;;6.47;5.22;;;19.50;71.80;18.90;101842.00;;;;5047591;28;20144;-74
2021/06/12 00:33:24;;;;;;;8.00;5.50;;;19.50;71.10;18.90;101843.00;;;;5038243;28;20503;-74
2021/06/12 00:35:50;;;;;;;9.70;5.65;;;19.40;71.20;18.80;101848.00;;;;5047064;28;20029;-73
2021/06/12 00:38:16;;;;;;;9.02;6.28;;;19.50;72.40;18.80;101850.00;;;;5039716;28;20081;-74
2021/06/12 00:40:42;;;;;;;10.65;6.40;;;19.40;71.50;18.80;101856.00;;;;5038665;28;20068;-73
2021/06/12 00:43:08;;;;;;;12.60;6.18;;;19.30;71.80;18.70;101847.00;;;;5037971;28;20055;-73
2021/06/12 00:45:34;;;;;;;10.80;6.18;;;19.30;72.50;18.70;101845.00;;;;5035710;28;20121;-73
2021/06/12 00:48:01;;;;;;;9.05;5.57;;;19.30;72.40;18.70;101841.00;;;;5038605;28;20048;-73
2021/06/12 00:50:32;;;;;;;10.68;5.90;;;19.20;71.70;18.60;101838.00;;;;5037139;28;20083;-73
2021/06/12 00:53:01;;;;;;;9.63;6.15;;;19.20;72.70;18.60;101836.00;;;;5032433;28;20573;-73
2021/06/12 00:55:27;;;;;;;10.93;5.70;;;19.20;73.10;18.60;101830.00;;;;5038966;28;20041;-74
2021/06/12 00:57:54;;;;;;;7.70;5.37;;;19.20;72.70;18.60;101840.00;;;;5038042;28;20040;-74
2021/06/12 01:00:21;;;;;;;11.80;5.43;;;19.20;72.70;18.60;101833.00;;;;5037248;28;20071;-74
2021/06/12 01:02:48;;;;;;;7.13;5.85;;;19.10;73.10;18.50;101826.00;;;;5023267;28;20056;-73
2021/06/12 01:05:18;;;;;;;10.05;5.53;;;19.10;73.10;18.50;101839.00;;;;5038962;28;20071;-74
2021/06/12 01:07:44;;;;;;;9.18;5.80;;;19.10;72.90;18.50;101828.00;;;;5041454;28;20647;-74
2021/06/12 01:10:13;;;;;;;8.55;5.43;;;19.10;72.90;18.50;101830.00;;;;5045342;28;20493;-74
2021/06/12 01:12:50;;;;;;;7.63;5.00;;;19.10;73.10;18.40;101825.00;;;;5056865;28;20037;-74
2021/06/12 01:15:17;;;;;;;11.02;6.47;;;19.10;73.00;18.40;101823.00;;;;5042452;28;20069;-74
2021/06/12 01:17:53;;;;;;;9.95;5.90;;;19.00;72.20;18.40;101830.00;;;;5040893;28;20653;-74
2021/06/12 01:20:52;;;;;;;8.90;5.82;;;19.00;73.20;18.30;101819.00;;;;5037693;28;20037;-74
2021/06/12 01:24:08;;;;;;;10.60;5.93;;;19.00;73.40;18.30;101813.00;;;;5053669;28;20048;-74
2021/06/12 01:26:49;;;;;;;9.10;5.75;;;18.90;73.40;18.30;101825.00;;;;5040799;28;20179;-74
2021/06/12 01:29:35;;;;;;;9.57;5.50;;;18.90;73.40;18.30;101820.00;;;;5041611;28;20060;-74
2021/06/12 01:32:02;;;;;;;8.77;5.30;;;18.90;73.40;18.30;101827.00;;;;5041043;28;20073;-73
2021/06/12 01:34:30;;;;;;;9.40;5.28;;;18.80;72.40;18.20;101819.00;;;;5026108;28;20033;-74
2021/06/12 01:36:57;;;;;;;11.48;6.30;;;18.80;73.50;18.20;101834.00;;;;5039190;28;20051;-73
2021/06/12 01:39:27;;;;;;;10.35;6.30;;;18.90;73.70;18.20;101828.00;;;;5038020;28;20416;-73
2021/06/12 01:41:57;;;;;;;9.18;5.97;;;18.80;73.90;18.20;101836.00;;;;5056788;28;20072;-74
2021/06/12 01:44:27;;;;;;;7.80;5.22;;;18.80;74.00;18.10;101831.00;;;;5027789;28;20037;-73
2021/06/12 01:46:55;;;;;;;10.57;5.43;;;18.70;74.10;18.10;101844.00;;;;5036951;28;20069;-73
2021/06/12 01:49:22;;;;;;;9.50;5.75;;;18.70;74.10;18.00;101832.00;;;;5035255;28;20094;-73
2021/06/12 01:51:49;;;;;;;12.50;5.50;;;18.70;74.20;18.00;101832.00;;;;5038774;28;20056;-73
2021/06/12 01:54:17;;;;;;;10.70;6.13;;;18.60;74.30;18.00;101843.00;;;;5041439;28;20045;-73
2021/06/12 01:56:45;;;;;;;11.75;5.47;;;18.60;74.40;17.90;101844.00;;;;5038700;28;20296;-73
2021/06/12 01:59:12;;;;;;;10.35;6.03;;;18.60;74.50;18.00;101840.00;;;;5034538;28;20047;-73
2021/06/12 02:01:40;;;;;;;;;;;18.60;74.50;17.90;101843.00;;;;5042078;28;20073;-73
2021/06/12 02:04:06;;;;;;;;;;;18.50;75.00;17.80;101823.00;;;;5038512;28;19971;-73
2021/06/12 02:06:35;;;;;;;9.55;5.97;;;18.50;73.40;17.90;101827.00;;;;5019494;28;19970;-73
2021/06/12 02:09:01;;;;;;;9.98;5.32;;;18.50;74.50;17.90;101823.00;;;;5037697;28;20163;-73
2021/06/12 02:11:28;;;;;;;10.77;5.53;;;18.50;74.40;17.90;101825.00;;;;5040272;28;20045;-73
2021/06/12 02:13:54;;;;;;;10.10;5.15;;;18.50;74.60;17.90;101824.00;;;;5036693;28;20836;-73
2021/06/12 02:16:25;;;;;;;10.18;5.60;;;18.50;74.80;17.90;101830.00;;;;5040359;28;20121;-73
2021/06/12 02:18:53;;;;;;;8.88;4.90;;;18.50;74.70;17.90;101826.00;;;;5020931;28;20041;-73
2021/06/12 02:21:22;;;;;;;6.93;4.80;;;18.50;74.70;17.80;101824.00;;;;5051995;28;20198;-74
2021/06/12 02:23:52;;;;;;;8.95;5.47;;;18.50;74.70;17.80;101826.00;;;;5017374;28;20037;-72
2021/06/12 02:26:22;;;;;;;7.97;5.50;;;18.50;74.90;17.80;101818.00;;;;5039291;28;20071;-73
2021/06/12 02:28:50;;;;;;;8.88;5.63;;;18.40;75.00;17.80;101817.00;;;;5040261;28;20528;-73
2021/06/12 02:31:23;;;;;;;10.50;5.47;;;18.40;75.30;17.80;101821.00;;;;5041027;28;20041;-73
2021/06/12 02:33:49;;;;;;;8.15;5.07;;;18.40;75.30;17.80;101816.00;;;;5041652;28;20091;-73
2021/06/12 02:36:16;;;;;;;7.75;4.88;;;18.40;74.50;17.80;101829.00;;;;5040517;28;20542;-72
2021/06/12 02:38:42;;;;;;;9.43;5.15;;;18.40;75.40;17.80;101830.00;;;;5035540;28;20033;-72
2021/06/12 02:41:08;;;;;;;9.77;5.13;;;18.30;75.20;17.80;101830.00;;;;5036141;28;20417;-72
2021/06/12 02:43:34;;;;;;;11.25;5.13;;;18.30;75.40;17.70;101823.00;;;;5032307;28;20052;-73
2021/06/12 02:46:07;;;;;;;8.27;5.30;;;18.40;75.50;17.80;101822.00;;;;5040701;28;20051;-73
2021/06/12 02:48:33;;;;;;;7.15;5.03;;;18.40;75.90;17.70;101826.00;;;;5036779;28;20037;-73
2021/06/12 02:51:01;;;;;;;9.63;5.30;;;18.30;75.60;17.70;101822.00;;;;5021139;28;20045;-73
2021/06/12 02:53:33;;;;;;;9.98;5.45;;;18.30;75.70;17.70;101816.00;;;;5017160;28;20041;-73
2021/06/12 02:56:01;;;;;;;8.93;4.82;;;18.40;75.80;17.70;101813.00;;;;5037196;28;20045;-73
2021/06/12 02:58:28;;;;;;;8.57;5.40;;;18.40;75.80;17.70;101813.00;;;;5037416;28;20526;-73
2021/06/12 03:00:56;;;;;;;7.70;4.45;;;18.30;74.90;17.70;101822.00;;;;5037070;28;20060;-73
2021/06/12 03:03:25;;;;;;;9.45;5.18;;;18.30;75.90;17.70;101820.00;;;;5020479;28;20045;-73
2021/06/12 03:05:57;;;;;;;10.13;5.80;;;18.30;76.00;17.70;101820.00;;;;5022060;28;20095;-73
2021/06/12 03:08:27;;;;;;;7.70;4.93;;;18.30;75.90;17.70;101814.00;;;;5037061;28;20045;-73
2021/06/12 03:10:54;;;;;;;7.72;4.85;;;18.30;75.90;17.70;101817.00;;;;5036077;28;20043;-73
2021/06/12 03:13:26;;;;;;;7.47;4.93;;;18.30;75.80;17.70;101811.00;;;;5036376;28;20570;-73
2021/06/12 03:15:55;;;;;;;9.05;4.65;;;18.30;74.90;17.80;101823.00;;;;5035455;28;20045;-72
2021/06/12 03:18:24;;;;;;;11.38;5.20;;;18.30;75.80;17.80;101823.00;;;;5033020;28;20045;-73
2021/06/12 03:20:55;;;;;;;10.13;5.10;;;18.30;76.10;17.80;101824.00;;;;5031602;28;20555;-72
2021/06/12 03:23:22;;;;;;;10.27;5.13;;;18.30;76.00;17.80;101826.00;;;;5018896;28;20048;-72
2021/06/12 03:25:51;;;;;;;8.50;4.97;;;18.40;76.10;17.80;101823.00;;;;5036656;28;20037;-72
2021/06/12 03:28:19;;;;;;;8.18;4.78;;;18.30;76.10;17.80;101821.00;;;;5020958;28;20051;-72
2021/06/12 03:30:46;;;;;;;7.90;4.30;;;18.30;76.00;17.80;101817.00;;;;5036740;28;20099;-72
2021/06/12 03:33:15;;;;;;;9.98;5.00;;;18.40;76.00;17.80;101809.00;;;;5029849;28;20075;-73
2021/06/12 03:35:43;;;;;;;7.43;5.32;;;18.40;75.50;17.80;101814.00;;;;5034298;28;20091;-72
2021/06/12 03:38:09;;;;;;;9.15;4.95;;;18.40;76.20;17.80;101811.00;;;;5033718;28;20033;-73
2021/06/12 03:40:36;;;;;;;10.77;4.90;;;18.40;76.20;17.80;101819.00;;;;5038167;28;20045;-73
2021/06/12 03:43:04;;;;;;;10.75;5.55;;;18.40;76.30;17.80;101808.00;;;;5037957;28;20048;-73
2021/06/12 03:45:31;;;;;;;10.73;5.68;;;18.40;76.40;17.80;101811.00;;;;5037491;28;20140;-73
2021/06/12 03:48:03;;;;;;;8.77;5.53;;;18.40;76.60;17.80;101810.00;;;;5029159;28;20107;-73
2021/06/12 03:50:29;;;;;;;9.85;5.18;;;18.40;76.60;17.80;101801.00;;;;5029824;28;20046;-73
2021/06/12 03:52:56;;;;;;;8.40;4.90;;;18.30;76.60;17.80;101799.00;;;;5034505;28;20535;-73
2021/06/12 03:55:22;;;;;;;10.27;5.78;;;18.30;76.70;17.80;101800.00;;;;5039541;28;20041;-73
2021/06/12 03:57:49;;;;;;;10.47;6.10;;;18.30;76.70;17.70;101806.00;;;;5054781;28;20076;-72
2021/06/12 04:00:18;;;;;;;9.38;5.97;;;18.30;76.90;17.70;101806.00;;;;5029157;28;20041;-73
2021/06/12 04:02:44;;;;;;;9.38;5.78;;;18.30;77.00;17.70;101822.00;;;;5008834;28;20094;-74
2021/06/12 04:05:10;;;;;;;12.70;6.07;;;18.30;77.00;17.70;101823.00;;;;5038371;28;20071;-75
2021/06/12 04:07:40;;;;;;;12.35;6.32;;;18.30;76.90;17.70;101814.00;;;;5040265;28;20057;-73
2021/06/12 04:10:08;;;;;;;9.70;6.35;;;18.30;77.10;17.70;101829.00;;;;5039496;28;20194;-73
2021/06/12 04:12:35;;;;;;;11.50;6.80;;;18.30;77.40;17.70;101839.00;;;;5040657;28;20044;-73
2021/06/12 04:15:01;;;;;;;11.77;7.05;;;18.30;77.40;17.70;101829.00;;;;5037199;28;20904;-74
2021/06/12 04:17:27;;;;;;;10.48;6.60;;;18.30;77.60;17.70;101829.00;;;;5041229;28;20139;-74
2021/06/12 04:19:53;;;;;;;11.85;6.90;;;18.30;77.40;17.80;101832.00;;;;5022987;28;20068;-73
2021/06/12 04:22:19;;;;;;;12.30;6.90;;;18.30;77.40;17.80;101826.00;;;;5003433;28;20053;-73
2021/06/12 04:24:45;;;;;;;13.33;6.87;;;18.30;77.80;17.80;101826.00;;;;5036531;28;20045;-73
2021/06/12 04:27:11;;;;;;;11.73;7.07;;;18.30;77.80;17.80;101835.00;;;;5018842;28;20043;-73
2021/06/12 04:29:37;;;;;;;13.38;7.03;;;18.30;77.70;17.80;101828.00;;;;5043313;28;20373;-73
2021/06/12 04:32:04;;;;;;;10.63;6.50;;;18.40;77.70;17.80;101828.00;;;;5041323;28;20056;-73
2021/06/12 04:34:30;;;;;;;11.00;7.45;;;18.30;77.50;17.80;101835.00;;;;5009326;28;20555;-73
2021/06/12 04:36:56;;;;;;;12.80;7.65;;;18.40;78.00;17.80;101820.00;;;;5043296;28;20157;-73
2021/06/12 04:39:22;;;;;;;14.20;7.63;;;18.40;78.20;17.90;101819.00;;;;5041348;28;20091;-73
2021/06/12 04:41:48;;;;;;;10.00;6.93;;;18.40;78.20;17.90;101824.00;;;;5042857;28;20048;-72
2021/06/12 04:44:14;;;;;;;9.70;7.25;;;18.40;78.10;17.90;101828.00;;;;5045364;28;20287;-73
2021/06/12 04:46:42;;;;;;;14.82;7.57;;;18.40;78.10;17.90;101825.00;;;;5044126;28;20102;-73
2021/06/12 04:49:09;;;;;;;12.02;7.13;;;18.40;78.00;17.90;101828.00;;;;5041091;28;20048;-73
2021/06/12 04:51:35;;;;;;;13.25;7.70;;;18.40;78.40;17.80;101829.00;;;;5021902;28;20045;-73
2021/06/12 04:54:02;;;;;;;14.02;7.40;;;18.40;78.20;17.90;101826.00;;;;5040025;28;20045;-73
2021/06/12 04:56:28;;;;;;;11.77;7.70;;;18.40;78.20;17.90;101821.00;;;;5043330;28;20082;-72
2021/06/12 04:58:54;;;;;;;11.93;7.70;;;18.40;77.60;17.90;101818.00;;;;5040356;28;20118;-73
2021/06/12 05:01:19;;;;;;;13.27;7.47;;;18.40;78.20;17.90;101809.00;;;;5038130;28;20496;-73
2021/06/12 05:03:45;;;;;;;12.43;7.38;;;18.40;78.30;17.90;101822.00;;;;5039729;28;20532;-74
2021/06/12 05:06:11;;;;;;;15.20;9.35;;;18.40;78.30;17.90;101834.00;;;;5043174;28;20075;-75
2021/06/12 05:08:37;;;;;;;13.10;8.30;;;18.40;78.90;17.90;101823.00;;;;5041716;28;20072;-75
2021/06/12 05:11:03;;;;;;;11.80;7.43;;;18.40;77.50;17.90;101834.00;;;;5040401;28;20980;-74
2021/06/12 05:13:32;;;;;;;16.17;8.88;;;18.50;78.60;17.90;101836.00;;;;5037780;28;20102;-73
2021/06/12 05:15:58;;;;;;;14.15;8.10;;;18.50;77.70;17.90;101830.00;;;;5039727;28;20590;-73
2021/06/12 05:18:31;;;;;;;12.48;7.90;;;18.50;77.70;18.00;101837.00;;;;5036793;28;20114;-73
2021/06/12 05:20:57;;;;;;;15.95;8.00;;;18.50;77.90;18.00;101837.00;;;;5044007;28;20039;-73
2021/06/12 05:23:23;;;;;;;15.18;8.02;;;18.50;78.40;18.00;101841.00;;;;5041766;28;20931;-73
2021/06/12 05:25:50;;;;;;;15.87;9.23;;;18.60;78.90;18.00;101842.00;;;;5024566;28;20424;-72
2021/06/12 05:28:15;;;;;;;13.70;8.10;;;18.60;78.60;18.00;101845.00;;;;5042663;28;20037;-73
2021/06/12 05:30:41;;;;;;;15.25;8.82;;;18.60;78.50;18.00;101844.00;;;;5042965;28;20056;-73
2021/06/12 05:33:07;;;;;;;14.73;9.65;;;18.50;77.90;18.00;101853.00;;;;5044740;28;20028;-73
2021/06/12 05:35:33;;;;;;;15.73;8.90;;;18.60;77.90;18.00;101852.00;;;;5041937;28;20051;-72
2021/06/12 05:38:01;;;;;;;15.07;9.77;;;18.50;78.60;18.00;101852.00;;;;5041904;28;20638;-73
2021/06/12 05:40:27;;;;;;;20.45;10.45;;;;;18.00;101853.00;;;;5041796;28;20562;-73
2021/06/12 05:42:53;;;;;;;18.25;10.95;;;18.60;77.80;18.00;101857.00;;;;5042896;28;20041;-73
2021/06/12 05:45:19;;;;;;;19.88;11.70;;;18.50;78.90;18.00;101860.00;;;;5053467;28;20403;-72
2021/06/12 05:47:45;;;;;;;19.40;11.75;;;18.50;79.50;18.00;101863.00;;;;5042254;28;20063;-72
2021/06/12 05:50:11;;;;;;;18.08;12.20;;;18.50;78.50;17.90;101878.00;;;;5023256;28;20044;-72
2021/06/12 05:52:37;;;;;;;19.63;12.77;;;18.50;79.20;17.90;101860.00;;;;5042376;28;20052;-72
2021/06/12 05:55:04;;;;;;;22.92;13.85;;;18.50;79.10;17.90;101874.00;;;;5042049;28;20041;-73
2021/06/12 05:57:30;;;;;;;18.98;13.23;;;18.50;79.60;17.90;101882.00;;;;5044048;28;20056;-72
2021/06/12 05:59:56;;;;;;;23.73;14.45;;;18.50;79.40;18.00;101889.00;;;;5055210;28;20084;-72
2021/06/12 06:02:22;;;;;;;25.35;14.90;;;18.50;79.50;18.00;101892.00;;;;5035450;28;20037;-72
2021/06/12 06:04:48;;;;;;;26.02;15.52;;;18.50;79.70;18.00;101883.00;;;;5043499;28;20122;-73
2021/06/12 06:07:14;;;;;;;25.37;14.63;;;18.50;79.70;17.90;101891.00;;;;5041976;28;20640;-73
2021/06/12 06:09:40;;;;;;;26.58;16.48;;;18.50;79.60;17.90;101879.00;;;;5046397;28;20550;-72
2021/06/12 06:12:06;;;;;;;23.70;14.95;;;18.50;79.00;18.00;101883.00;;;;5022317;28;20037;-73
2021/06/12 06:14:32;;;;;;;28.23;16.58;;;18.50;79.80;18.00;101880.00;;;;5044524;28;20525;-75
2021/06/12 06:16:58;;;;;;;29.40;18.98;;;18.60;79.90;18.10;101878.00;;;;5043059;28;20397;-75
2021/06/12 06:19:24;;;;;;;28.65;17.58;;;18.60;80.10;18.10;101876.00;;;;5040172;28;20052;-75
2021/06/12 06:21:50;;;;;;;27.90;18.38;;;18.60;80.00;18.20;101873.00;;;;5042167;28;20100;-74
2021/06/12 06:24:16;;;;;;;31.23;18.85;;;18.70;79.90;18.30;101862.00;;;;5027425;28;20060;-75
2021/06/12 06:26:42;;;;;;;25.40;16.30;;;18.80;80.00;18.50;101863.00;;;;5044008;28;20126;-75
2021/06/12 06:29:08;;;;;;;20.65;15.15;;;18.90;79.90;18.60;101869.00;;;;5027743;28;20434;-74
2021/06/12 06:31:34;;;;;;;26.52;15.40;;;19.10;78.50;18.80;101872.00;;;;5041326;28;20582;-75
2021/06/12 06:34:00;;;;;;;22.85;15.10;;;19.30;77.70;18.90;101876.00;;;;5040669;28;20041;-74
2021/06/12 06:36:26;;;;;;;23.77;16.90;;;19.30;78.20;19.00;101869.00;;;;5042085;28;20229;-75
2021/06/12 06:38:52;;;;;;;26.25;15.73;;;19.40;78.70;19.00;101870.00;;;;5043069;28;20064;-75
2021/06/12 06:41:18;;;;;;;22.87;15.57;;;19.40;78.30;19.00;101887.00;;;;5041874;28;20049;-75
2021/06/12 06:43:44;;;;;;;24.50;15.00;;;19.50;78.20;19.10;101883.00;;;;5039305;28;20041;-75
2021/06/12 06:46:10;;;;;;;22.77;14.65;;;19.50;78.00;19.10;101884.00;;;;5034980;28;20722;-75
2021/06/12 06:48:36;;;;;;;41.77;16.30;;;19.60;76.80;19.20;101882.00;;;;5042973;28;20052;-75
2021/06/12 06:51:02;;;;;;;24.23;16.65;;;19.60;77.80;19.20;101882.00;;;;5043234;28;20041;-76
2021/06/12 06:53:32;;;;;;;23.55;15.57;;;19.60;77.60;19.30;101891.00;;;;5039218;28;20033;-75
2021/06/12 06:56:01;;;;;;;29.25;16.45;;;19.70;77.70;19.40;101893.00;;;;5036064;28;20045;-74
2021/06/12 06:58:28;;;;;;;26.38;16.65;;;19.80;77.40;19.40;101898.00;;;;5009111;28;20611;-75
2021/06/12 07:00:54;;;;;;;26.77;17.45;;;19.80;76.10;19.40;101899.00;;;;5042270;28;20029;-75
2021/06/12 07:03:20;;;;;;;25.73;16.48;;;19.80;77.40;19.50;101900.00;;;;5024082;28;20128;-75
2021/06/12 07:05:46;;;;;;;24.58;17.45;;;19.90;76.00;19.60;101902.00;;;;5041151;28;20152;-74
2021/06/12 07:08:12;;;;;;;24.10;16.50;;;20.00;77.10;19.70;101917.00;;;;5041070;28;20041;-75
2021/06/12 07:10:38;;;;;;;25.30;18.77;;;20.20;75.40;19.80;101923.00;;;;5024039;28;20053;-75
2021/06/12 07:13:04;;;;;;;33.33;18.57;;;20.20;76.30;19.80;101910.00;;;;5041234;28;20107;-75
2021/06/12 07:15:30;;;;;;;28.35;17.60;;;20.30;76.10;19.90;101898.00;;;;5042809;28;20526;-75
2021/06/12 07:17:56;;;;;;;22.70;16.98;;;20.30;75.90;20.00;101899.00;;;;5041710;28;20524;-75
2021/06/12 07:20:23;;;;;;;22.02;16.40;;;20.40;74.50;20.10;101887.00;;;;5054827;28;20033;-75
2021/06/12 07:22:49;;;;;;;;;;;20.40;75.40;20.10;101888.00;;;;5043723;28;20053;-75
2021/06/12 07:25:15;;;;;;;19.05;14.85;;;20.50;74.90;20.20;101889.00;;;;5040542;28;19917;-76
2021/06/12 07:27:41;;;;;;;24.95;16.58;;;20.60;74.90;20.40;101896.00;;;;5039158;28;20068;-76
2021/06/12 07:30:08;;;;;;;23.92;16.05;;;20.70;74.80;20.60;101904.00;;;;5038980;28;20461;-76
2021/06/12 07:32:34;;;;;;;20.17;15.00;;;20.90;74.40;20.80;101906.00;;;;5029453;28;20044;-75
2021/06/12 07:35:00;;;;;;;19.52;15.30;;;21.10;72.70;20.90;101904.00;;;;5041507;28;20039;-76
2021/06/12 07:37:26;;;;;;;21.07;13.83;;;21.20;73.70;21.00;101909.00;;;;5039107;28;20064;-76
2021/06/12 07:39:52;;;;;;;19.55;14.07;;;21.30;73.10;21.10;101902.00;;;;5039294;28;20160;-76
2021/06/12 07:42:18;;;;;;;21.75;14.18;;;21.40;72.60;21.20;101907.00;;;;5051709;28;20040;-75
2021/06/12 07:44:44;;;;;;;16.65;13.27;;;21.50;72.00;21.30;101911.00;;;;5019998;28;20033;-75
2021/06/12 07:47:12;;;;;;;16.53;12.37;;;21.60;71.60;21.30;101908.00;;;;5040881;28;20499;-76
2021/06/12 07:49:39;;;;;;;17.40;11.02;;;21.60;71.70;21.10;101915.00;;;;5041634;28;20041;-76
2021/06/12 07:52:05;;;;;;;24.42;11.48;;;21.60;70.80;21.10;101919.00;;;;5021137;28;20037;-77
2021/06/12 07:54:31;;;;;;;13.73;10.45;;;21.50;71.10;21.10;101929.00;;;;5038788;28;20049;-76
2021/06/12 07:56:57;;;;;;;18.23;8.63;;;21.50;71.10;21.10;101917.00;;;;5044064;28;20047;-77
2021/06/12 07:59:23;;;;;;;10.73;8.23;;;21.50;70.20;21.10;101921.00;;;;5040719;28;20055;-77
2021/06/12 08:01:48;;;;;;;12.67;8.40;;;21.50;68.60;21.20;101919.00;;;;5040570;28;20044;-77
2021/06/12 08:04:14;;;;;;;11.13;7.37;;;21.50;70.00;21.10;101924.00;;;;5029591;28;20440;-77
2021/06/12 08:06:40;;;;;;;11.10;7.57;;;21.50;68.80;21.20;101927.00;;;;5040812;28;20098;-77
2021/06/12 08:09:07;;;;;;;13.07;7.47;;;21.60;69.30;21.00;101933.00;;;;5038870;28;20045;-77
2021/06/12 08:11:32;;;;;;;12.57;7.10;;;21.50;68.80;21.00;101932.00;;;;5039855;28;20104;-79
2021/06/12 08:14:00;;;;;;;11.40;6.57;;;21.40;68.70;20.90;101935.00;;;;5030436;28;20807;-77
2021/06/12 08:16:26;;;;;;;11.05;6.63;;;21.40;67.20;20.90;101931.00;;;;5042274;28;20036;-74
2021/06/12 08:18:52;;;;;;;11.45;6.95;;;21.40;68.50;20.80;101940.00;;;;5038511;28;20049;-74
2021/06/12 08:21:18;;;;;;;10.98;6.68;;;21.30;65.70;21.00;101939.00;;;;5039774;28;20033;-74
2021/06/12 08:23:44;;;;;;;12.30;6.00;;;21.30;68.10;21.20;101934.00;;;;5041429;28;20037;-74
2021/06/12 08:26:11;;;;;;;9.43;6.07;;;21.50;67.00;21.30;101950.00;;;;5043351;28;20044;-73
2021/06/12 08:28:37;;;;;;;10.10;5.70;;;21.60;67.10;21.10;101958.00;;;;5038720;28;20522;-73
2021/06/12 08:31:04;;;;;;;9.50;5.32;;;21.60;65.80;21.10;101955.00;;;;5039313;28;20091;-73
2021/06/12 08:33:31;;;;;;;8.93;4.57;;;21.50;66.30;21.20;101964.00;;;;5039405;28;20542;-73
2021/06/12 08:35:57;;;;;;;7.95;4.90;;;21.50;62.70;21.00;101951.00;;;;5042369;28;20052;-74
2021/06/12 08:38:23;;;;;;;7.83;4.93;;;21.50;65.00;21.10;101963.00;;;;5041142;28;20044;-73
2021/06/12 08:40:49;;;;;;;11.33;5.60;;;21.50;65.00;21.10;101955.00;;;;5038761;28;20099;-76
2021/06/12 08:43:24;;;;;;;8.73;4.75;;;21.50;64.60;21.10;101960.00;;;;5039286;28;20400;-73
2021/06/12 08:45:51;;;;;;;11.68;5.60;;;21.50;64.60;21.20;101960.00;;;;5037940;28;20053;-73
2021/06/12 08:48:17;;;;;;;8.40;4.40;;;21.60;65.10;21.20;101968.00;;;;5039831;28;20228;-74
2021/06/12 08:50:44;;;;;;;9.38;4.68;;;21.60;63.70;21.00;101973.00;;;;5039681;28;20053;-74
2021/06/12 08:53:11;;;;;;;8.93;3.78;;;21.50;63.10;20.80;101962.00;;;;5041347;28;20178;-73
2021/06/12 08:55:37;;;;;;;7.70;3.72;;;21.40;63.60;20.80;101973.00;;;;5033538;28;20049;-73
2021/06/12 08:58:03;;;;;;;9.13;4.00;;;21.30;63.50;20.70;101982.00;;;;5037981;28;20076;-72
2021/06/12 09:00:29;;;;;;;7.23;3.60;;;21.20;63.50;20.50;101987.00;;;;5040081;28;20504;-73
2021/06/12 09:03:25;;;;;;;8.67;3.70;;;21.10;62.80;20.40;101994.00;;;;5038462;28;20037;-73
2021/06/12 09:05:59;;;;;;;6.45;3.40;;;21.00;62.20;20.60;101996.00;;;;5038720;28;20104;-73
2021/06/12 09:08:28;;;;;;;9.65;3.60;;;21.00;63.00;20.70;101985.00;;;;5042103;28;20052;-74
2021/06/12 09:11:11;;;;;;;10.35;3.72;;;21.20;60.80;20.80;101983.00;;;;5040077;28;20041;-74
2021/06/12 09:13:44;;;;;;;11.25;3.80;;;21.20;60.00;21.10;101977.00;;;;5042527;28;20060;-74
2021/06/12 09:16:32;;;;;;;8.32;3.22;;;21.40;61.90;21.30;101978.00;;;;5045593;28;20131;-74
2021/06/12 09:19:09;;;;;;;;;;;21.60;59.20;21.40;101981.00;;;;5046943;28;20120;-75
2021/06/12 09:21:38;;;;;;;5.57;2.70;;;21.70;58.30;21.70;101985.00;;;;5043235;28;20330;-73
2021/06/12 09:24:27;;;;;;;12.77;3.78;;;21.90;60.60;21.60;101989.00;;;;5041146;28;20048;-72
2021/06/12 09:26:57;;;;;;;6.97;3.33;;;22.00;59.10;21.80;101986.00;;;;5054777;28;20205;-70
2021/06/12 09:29:45;;;;;;;29.23;4.50;;;22.10;59.10;21.80;101984.00;;;;5043403;28;20526;-70
2021/06/12 09:32:28;;;;;;;6.05;2.97;;;22.20;58.40;22.00;101998.00;;;;5047295;28;20705;-72
2021/06/12 09:35:03;;;;;;;9.48;3.67;;;22.30;55.30;22.00;101987.00;;;;5042173;28;20040;-71
2021/06/12 09:37:31;;;;;;;4.90;2.60;;;22.30;55.90;22.20;101977.00;;;;5041218;28;20037;-71
2021/06/12 09:40:13;;;;;;;7.65;3.17;;;22.40;57.60;22.20;101985.00;;;;5021252;28;20048;-71
2021/06/12 09:42:48;;;;;;;7.78;3.03;;;22.60;54.00;22.40;101994.00;;;;5045766;28;20041;-73
2021/06/12 09:45:20;;;;;;;8.05;3.00;;;22.60;55.90;22.60;101995.00;;;;5048898;28;20053;-74
2021/06/12 09:47:46;;;;;;;10.13;2.95;;;22.80;56.00;22.60;101995.00;;;;5045270;28;20095;-72
2021/06/12 09:50:15;;;;;;;6.40;3.15;;;22.90;55.30;22.60;102011.00;;;;5046207;28;20403;-75
2021/06/12 09:52:44;;;;;;;10.05;3.08;;;23.00;55.20;22.70;102006.00;;;;5060562;28;20064;-74
2021/06/12 09:55:31;;;;;;;6.05;3.15;;;23.00;54.80;22.70;102011.00;;;;5047029;28;20134;-75
2021/06/12 09:58:00;;;;;;;6.75;3.17;;;23.10;54.20;22.70;102003.00;;;;5047294;28;20503;-75
2021/06/12 10:00:34;;;;;;;7.65;3.30;;;23.00;54.60;22.70;101994.00;;;;5060444;28;20060;-74
2021/06/12 10:03:00;;;;;;;6.25;3.03;;;23.10;53.50;22.80;102009.00;;;;5046562;28;20063;-73
2021/06/12 10:05:27;;;;;;;7.47;3.55;;;23.10;54.10;22.90;102007.00;;;;5031661;28;20100;-72
2021/06/12 10:07:53;;;;;;;;;;;23.20;53.90;22.70;102008.00;;;;5062790;28;20074;-73
2021/06/12 10:10:20;;;;;;;9.35;3.67;;;23.10;53.00;22.70;102008.00;;;;5042996;28;19921;-74
2021/06/12 10:12:46;;;;;;;;;;;23.10;53.80;22.50;102009.00;;;;5044114;28;20045;-74
2021/06/12 10:15:15;;;;;;;7.63;3.00;;;23.00;50.20;22.60;102016.00;;;;5039432;28;20019;-74
2021/06/12 10:17:52;;;;;;;6.43;3.50;;;23.00;54.00;22.40;102016.00;;;;5044535;28;20128;-75
2021/06/12 10:20:24;;;;;;;5.80;3.08;;;22.90;53.20;22.50;102019.00;;;;5043348;28;20049;-73
2021/06/12 10:22:52;;;;;;;4.90;2.85;;;22.90;54.00;22.60;102020.00;;;;5041557;28;20072;-71
2021/06/12 10:25:21;;;;;;;9.73;3.20;;;22.90;53.40;22.80;102019.00;;;;5043563;28;20202;-68
2021/06/12 10:27:48;;;;;;;6.25;3.40;;;23.10;53.00;22.90;102030.00;;;;5041478;28;20091;-68
2021/06/12 10:30:18;;;;;;;10.25;3.55;;;23.10;53.20;22.90;102029.00;;;;5045397;28;20115;-68
2021/06/12 10:32:48;;;;;;;9.43;3.53;;;23.20;52.80;23.00;102036.00;;;;5043720;28;20122;-67
2021/06/12 10:35:24;;;;;;;10.23;3.80;;;23.30;50.70;22.90;102029.00;;;;5041475;28;20037;-67
2021/06/12 10:37:58;;;;;;;7.85;3.20;;;23.30;51.80;22.80;102034.00;;;;5023660;28;20045;-67
2021/06/12 10:40:57;;;;;;;8.82;3.70;;;23.30;52.10;22.50;102032.00;;;;5040306;28;20045;-68
2021/06/12 10:43:27;;;;;;;8.30;3.20;;;22.90;50.90;22.40;102035.00;;;;5044986;28;20527;-71
2021/06/12 10:46:06;;;;;;;11.23;3.10;;;22.90;52.70;22.40;102039.00;;;;5046490;28;20474;-70
2021/06/12 10:48:53;;;;;;;10.23;3.38;;;22.80;50.80;22.20;102037.00;;;;5045588;28;20064;-70